Airfield :
LOGIN :

Register | Disclaimer

   EN    FR    IT 

 










Legend :    VFR   Marginal VFR   IFR   Intensive IFR   Very Intensive IFR
Visi :
Ceiling :
>= 8 km
>= 3000ft
5 to 8 km
1000 to 3000 ft
1500m to 5 km
500 to 1000 ft
800 to 1500m
200 to 500 ft
< 800m
< 200 ft
Symbols :   Thunderstorms  Fog  Heavy snow  Heavy precipitations  Wind > 20 kt
SIGMETs :     Misc.  Thunderstorms  Icing  Turbulence  Mountain Waves  Volcanic Ashes






- Airport Elevation : 49 ft
- IATA code : AOI


LIPY - Ancona Falconara

CURRENT METAR :
  • 130456Z VRB02KT CAVOK 00/M00 Q0997

EXPIRED METARs :
  • 130409Z AUTO 18002KT 5000 BR ///////// M00/M00 Q0998
  • 130350Z AUTO 17002KT 4500 BR ///////// M00/M01 Q0999
  • 130320Z AUTO 22005KT 4900 BR ///////// M01/M02 Q0999
  • 130316Z AUTO 22005KT 6000 ///////// M02/M03 Q0999
  • 130250Z AUTO 19003KT 4700 BR ///////// M01/M02 Q0999

TAF TAF LIPY
Valid from the 13 at 00:00 until the 14 at 00:00 UTC


122300Z 1300/1324 VRB05KT 9999 SCT040
BECMG 1308/1310 15013KT
TEMPO 1312/1318 4000 SHRA
BECMG 1316/1318 32020G35KT



MET'MAP, your aeronautical weather chart ! - Copyright ORBIFLY December 2007 - Disclaimer

ORBIFLY MET'MAP TEAM :

Programming & Development : Alexandra Zaïnal
Concept & original design : Baudouin d'Aumeries
Assistance for programming : Marc-Olivier Méhu
Technical & hardware support : Manuel Goepfert

Contact : metmap@orbifly.com




SOURCES & CREDITS :

   NOAA